Lake Geneva, Wisconsin
Current Conditions -  °F | °C
As of 10:55 AM on Monday 22 Dec 2014 (Local Time) from KBUU Reporting Station
Overcast Overcast  
Wind Chill: 26°   Ceiling: 6500
Heat Index: 34°   Visibility: 7mi
Dew Point: 30°   Wind: 10mph
Humidity: 86%   Direction: 100°E
Pressure: 29.84"   Gusts: NA
Location:  42.59°N, 88.44°W
Report Text: KBUU 221655Z AUTO 10009KT 7SM BKN065 OVC080 01/M01 A2984 RMK AO2 T00101011
Loading
Personal Weather Stations






























Interactive Weather Map New forecast layout! Learn more

10-Day Weather Forecast

Advertisements
Track Severe Weather on mobile